createdAt,value
2022-08-09T00:02:06.378Z,2.40
2022-08-09T00:06:19.738Z,2.57
2022-08-09T00:09:07.125Z,2.43
2022-08-09T00:12:34.622Z,2.60
2022-08-09T00:15:59.541Z,2.60
2022-08-09T00:19:23.085Z,2.47
2022-08-09T00:22:42.850Z,2.63
2022-08-09T00:26:07.625Z,2.60
2022-08-09T00:30:10.220Z,3.00
2022-08-09T00:33:09.090Z,2.60
2022-08-09T00:36:30.846Z,2.90
2022-08-09T00:40:12.916Z,3.20
2022-08-09T00:44:14.503Z,2.90
2022-08-09T00:45:50.494Z,2.93
2022-08-09T00:48:15.433Z,3.33
2022-08-09T00:50:53.091Z,3.00
2022-08-09T00:54:13.201Z,3.20
2022-08-09T00:56:41.576Z,3.13
2022-08-09T01:00:05.179Z,2.97
2022-08-09T01:03:32.684Z,3.10
2022-08-09T01:07:03.552Z,3.20
2022-08-09T01:10:28.936Z,3.00
2022-08-09T01:14:00.067Z,3.40
2022-08-09T01:17:25.061Z,3.10
2022-08-09T01:20:56.822Z,3.30
2022-08-09T01:24:32.219Z,3.20
2022-08-09T01:27:54.015Z,3.40
2022-08-09T01:30:28.650Z,3.40
2022-08-09T01:33:30.808Z,3.67
2022-08-09T01:36:03.126Z,3.70
2022-08-09T01:39:16.777Z,3.43
2022-08-09T01:41:53.639Z,3.70
2022-08-09T01:45:22.469Z,3.33
2022-08-09T01:48:39.326Z,2.83
2022-08-09T01:52:07.281Z,3.87
2022-08-09T01:55:20.666Z,3.80
2022-08-09T01:58:37.215Z,3.53
2022-08-09T02:01:18.734Z,3.50
2022-08-09T02:04:23.498Z,4.13
2022-08-09T02:07:06.218Z,3.60
2022-08-09T02:09:42.222Z,3.60
2022-08-09T02:12:34.824Z,4.07
2022-08-09T02:15:15.417Z,3.87
2022-08-09T02:18:01.271Z,3.47
2022-08-09T02:20:33.928Z,3.90
2022-08-09T02:23:07.118Z,3.83
2022-08-09T02:25:49.707Z,3.57
2022-08-09T02:28:18.462Z,3.83
2022-08-09T02:30:42.674Z,3.80
2022-08-09T02:33:07.967Z,3.87
2022-08-09T02:36:03.223Z,3.60
2022-08-09T02:38:28.912Z,3.80
2022-08-09T02:40:51.219Z,3.60
2022-08-09T02:43:13.744Z,4.57
2022-08-09T02:45:38.946Z,3.83
2022-08-09T02:48:19.513Z,3.83
2022-08-09T02:50:54.356Z,4.07
2022-08-09T02:53:26.407Z,3.80
2022-08-09T02:55:57.688Z,3.80
2022-08-09T02:58:35.986Z,3.60
2022-08-09T03:01:00.030Z,3.93
2022-08-09T03:03:37.161Z,4.00
2022-08-09T03:06:14.602Z,3.97
2022-08-09T03:08:36.063Z,3.93
2022-08-09T03:10:58.709Z,3.90
2022-08-09T03:13:22.573Z,4.00
2022-08-09T03:16:04.474Z,4.47
2022-08-09T03:18:31.186Z,4.20
2022-08-09T03:20:53.369Z,3.90
2022-08-09T03:23:24.226Z,4.17
2022-08-09T03:25:58.352Z,4.17
2022-08-09T03:28:25.783Z,4.13
2022-08-09T03:30:48.972Z,4.17
2022-08-09T03:33:17.716Z,4.20
2022-08-09T03:36:13.715Z,4.00
2022-08-09T03:38:30.418Z,4.07
2022-08-09T03:40:52.338Z,3.90
2022-08-09T03:43:13.858Z,4.40
2022-08-09T03:46:03.949Z,4.13
2022-08-09T03:48:18.810Z,4.70
2022-08-09T03:50:42.889Z,4.20
2022-08-09T03:53:06.521Z,4.07
2022-08-09T03:55:36.081Z,4.00
2022-08-09T03:58:06.678Z,4.13
2022-08-09T04:00:38.986Z,4.50
2022-08-09T04:03:01.465Z,4.30
2022-08-09T04:05:27.444Z,4.27
2022-08-09T04:07:56.803Z,4.40
2022-08-09T04:10:28.338Z,4.70
2022-08-09T04:12:53.307Z,4.30
2022-08-09T04:15:29.328Z,4.73
2022-08-09T04:17:57.573Z,4.30
2022-08-09T04:20:19.180Z,4.30
2022-08-09T04:22:44.211Z,4.90
2022-08-09T04:25:09.238Z,4.73
2022-08-09T04:27:32.860Z,4.50
2022-08-09T04:29:59.398Z,4.37
2022-08-09T04:32:31.281Z,4.47
2022-08-09T04:34:57.529Z,4.30
2022-08-09T04:37:19.441Z,4.43
2022-08-09T04:39:41.012Z,4.60
2022-08-09T04:42:04.096Z,4.60
2022-08-09T04:44:31.197Z,4.83
2022-08-09T04:46:57.196Z,4.80
2022-08-09T04:49:30.314Z,4.73
2022-08-09T04:52:00.756Z,4.60
2022-08-09T04:54:22.018Z,4.50
2022-08-09T04:56:43.378Z,4.77
2022-08-09T04:59:13.010Z,5.03
2022-08-09T05:01:37.294Z,5.20
2022-08-09T05:03:58.926Z,4.50
2022-08-09T05:06:27.978Z,4.47
2022-08-09T05:08:50.513Z,4.20
2022-08-09T05:11:12.330Z,4.90
2022-08-09T05:13:33.916Z,4.60
2022-08-09T05:16:01.673Z,4.57
2022-08-09T05:18:50.330Z,4.73
2022-08-09T05:21:13.357Z,5.00
2022-08-09T05:23:51.075Z,5.07
2022-08-09T05:26:37.593Z,4.97
2022-08-09T05:29:00.423Z,4.80
2022-08-09T05:31:44.880Z,4.90
2022-08-09T05:34:06.881Z,4.93
2022-08-09T05:36:37.906Z,5.30
2022-08-09T05:39:04.206Z,5.67
2022-08-09T05:41:26.472Z,5.27
2022-08-09T05:43:49.106Z,5.33
2022-08-09T05:46:13.446Z,4.83
2022-08-09T05:48:36.571Z,4.80
2022-08-09T05:51:16.686Z,5.17
2022-08-09T05:53:56.419Z,5.67
2022-08-09T05:56:19.285Z,5.70
2022-08-09T05:58:47.497Z,5.90
2022-08-09T06:01:10.552Z,5.20
2022-08-09T06:03:44.259Z,5.17
2022-08-09T06:06:16.348Z,5.63
2022-08-09T06:08:38.034Z,5.67
2022-08-09T06:11:01.655Z,5.73
2022-08-09T06:13:38.394Z,5.17
2022-08-09T06:16:00.265Z,5.77
2022-08-09T06:18:25.178Z,5.43
2022-08-09T06:20:54.321Z,5.30
2022-08-09T06:23:18.149Z,5.37
2022-08-09T06:25:39.401Z,5.00
2022-08-09T06:28:05.418Z,5.27
2022-08-09T06:30:27.108Z,5.10
2022-08-09T06:32:59.952Z,4.60
2022-08-09T06:35:56.548Z,4.20
2022-08-09T06:38:17.143Z,4.57
2022-08-09T06:40:40.937Z,4.60
2022-08-09T06:43:03.670Z,5.00
2022-08-09T06:46:08.030Z,4.70
2022-08-09T06:48:10.301Z,4.60
2022-08-09T06:50:38.245Z,4.50
2022-08-09T06:53:01.475Z,4.20
2022-08-09T06:55:28.229Z,4.10
2022-08-09T06:58:03.222Z,4.10
2022-08-09T07:00:48.790Z,4.00
2022-08-09T07:03:07.565Z,4.10
2022-08-09T07:05:58.419Z,3.73
2022-08-09T07:08:11.416Z,3.50
2022-08-09T07:10:34.580Z,3.70
2022-08-09T07:12:57.201Z,3.73
2022-08-09T07:16:36.409Z,4.20
2022-08-09T07:18:02.365Z,3.60
2022-08-09T07:20:23.955Z,3.93
2022-08-09T07:22:52.423Z,3.80
2022-08-09T07:25:15.551Z,3.60
2022-08-09T07:27:42.579Z,3.60
2022-08-09T07:30:15.504Z,3.53
2022-08-09T07:32:39.767Z,3.10
2022-08-09T07:35:10.073Z,3.00
2022-08-09T07:37:43.683Z,3.03
2022-08-09T07:40:07.115Z,3.00
2022-08-09T07:42:32.699Z,2.87
2022-08-09T07:44:59.694Z,3.07
2022-08-09T07:47:23.610Z,3.20
2022-08-09T07:50:04.694Z,2.90
2022-08-09T07:52:26.632Z,2.80
2022-08-09T07:54:51.627Z,2.90
2022-08-09T07:57:14.743Z,3.00
2022-08-09T07:59:50.929Z,3.10
2022-08-09T08:02:20.211Z,2.80
2022-08-09T08:04:41.998Z,2.87
2022-08-09T08:08:05.939Z,3.00
2022-08-09T08:09:59.759Z,3.20
2022-08-09T08:12:31.032Z,3.00
2022-08-09T08:14:52.882Z,2.53
2022-08-09T08:17:14.285Z,2.67
2022-08-09T08:19:57.286Z,2.73
2022-08-09T08:22:19.531Z,2.67
2022-08-09T08:24:49.214Z,2.63
2022-08-09T08:27:16.995Z,2.90
2022-08-09T08:29:44.353Z,2.90
2022-08-09T08:32:12.468Z,2.97
2022-08-09T08:34:40.104Z,2.70
2022-08-09T08:37:05.294Z,2.80
2022-08-09T08:39:27.268Z,2.77
2022-08-09T08:41:51.885Z,2.87
2022-08-09T08:44:14.645Z,2.93
2022-08-09T08:47:00.102Z,2.70
2022-08-09T08:49:21.567Z,2.87
2022-08-09T08:52:00.286Z,2.90
2022-08-09T08:55:09.083Z,3.13
2022-08-09T08:58:11.971Z,2.87
2022-08-09T09:00:34.386Z,2.67
2022-08-09T09:03:08.370Z,2.70
2022-08-09T09:05:58.973Z,2.87
2022-08-09T09:08:59.608Z,2.80
2022-08-09T09:12:22.397Z,2.87
2022-08-09T09:15:42.762Z,2.70
2022-08-09T09:23:02.397Z,2.90
2022-08-09T09:26:31.641Z,2.97
2022-08-09T09:30:12.245Z,2.80
2022-08-09T09:33:44.849Z,3.13
2022-08-09T09:37:06.908Z,2.50
2022-08-09T09:39:50.350Z,2.67
2022-08-09T09:43:22.548Z,2.90
2022-08-09T09:46:52.209Z,2.80
2022-08-09T09:50:15.962Z,2.60
2022-08-09T09:52:53.608Z,2.70
2022-08-09T09:55:32.321Z,2.70
2022-08-09T09:58:17.246Z,2.87
2022-08-09T10:00:53.967Z,2.47
2022-08-09T10:03:17.196Z,2.77
2022-08-09T10:06:03.811Z,2.67
2022-08-09T10:08:54.216Z,2.50
2022-08-09T10:12:00.082Z,2.53
2022-08-09T10:14:02.027Z,2.60
2022-08-09T10:16:56.998Z,2.63
2022-08-09T10:19:13.257Z,2.80
2022-08-09T10:21:36.515Z,2.67
2022-08-09T10:24:03.920Z,2.77
2022-08-09T10:26:26.793Z,2.30
2022-08-09T10:29:21.420Z,2.50
2022-08-09T10:32:45.858Z,2.33
2022-08-09T10:36:09.377Z,2.60
2022-08-09T10:39:23.292Z,2.50
2022-08-09T10:42:48.232Z,2.53
2022-08-09T10:45:59.880Z,2.33
2022-08-09T10:49:50.057Z,2.30
2022-08-09T10:52:30.551Z,2.37
2022-08-09T10:55:06.565Z,2.30
2022-08-09T10:58:37.136Z,2.40
2022-08-09T11:03:07.354Z,2.33
2022-08-09T11:05:24.514Z,2.30
2022-08-09T11:08:30.208Z,2.10
2022-08-09T11:11:21.850Z,2.10
2022-08-09T11:14:38.760Z,2.20
2022-08-09T11:18:03.755Z,2.03
2022-08-09T11:21:55.179Z,2.10
2022-08-09T11:24:21.473Z,2.13
2022-08-09T11:27:45.258Z,2.10
2022-08-09T11:31:52.591Z,2.30
2022-08-09T11:34:26.416Z,2.00
2022-08-09T11:36:49.369Z,2.07
2022-08-09T11:39:11.212Z,1.90
2022-08-09T11:41:37.509Z,2.00
2022-08-09T11:43:59.314Z,2.10
2022-08-09T11:46:26.608Z,1.90
2022-08-09T11:48:56.962Z,1.90
2022-08-09T11:52:56.979Z,1.83
2022-08-09T11:55:34.904Z,2.07
2022-08-09T11:58:42.165Z,2.10
2022-08-09T12:01:37.426Z,2.10
2022-08-09T12:04:00.258Z,1.90
2022-08-09T12:06:35.263Z,1.97
2022-08-09T12:08:58.442Z,1.90
2022-08-09T12:11:25.565Z,2.10
2022-08-09T12:14:09.924Z,2.30
2022-08-09T12:16:39.818Z,2.10
2022-08-09T12:19:05.501Z,2.00
2022-08-09T12:21:37.188Z,2.37
2022-08-09T12:24:09.548Z,2.10
2022-08-09T12:29:12.575Z,2.10
2022-08-09T12:30:36.287Z,2.00
2022-08-09T12:34:01.553Z,1.87
2022-08-09T12:37:24.505Z,1.90
2022-08-09T12:40:59.502Z,2.10
2022-08-09T12:44:24.493Z,1.93
2022-08-09T12:47:32.705Z,1.90
2022-08-09T12:50:26.516Z,2.07
2022-08-09T12:53:52.814Z,2.10
2022-08-09T12:57:13.834Z,2.00
2022-08-09T13:00:41.535Z,1.90
2022-08-09T13:03:40.910Z,2.00
2022-08-09T13:06:39.091Z,2.20
2022-08-09T13:09:24.752Z,2.00
2022-08-09T13:12:10.389Z,2.03
2022-08-09T13:15:01.333Z,1.97
2022-08-09T13:18:05.452Z,2.10
2022-08-09T13:20:37.951Z,1.90
2022-08-09T13:24:07.331Z,2.00
2022-08-09T13:26:57.976Z,1.87
2022-08-09T13:30:49.441Z,2.00
2022-08-09T13:34:01.998Z,1.73
2022-08-09T13:36:47.948Z,1.73
2022-08-09T13:41:51.050Z,2.10
2022-08-09T13:43:03.636Z,1.63
2022-08-09T13:46:44.457Z,1.58
2022-08-09T13:49:18.323Z,1.70
2022-08-09T13:52:39.189Z,1.70
2022-08-09T13:56:02.566Z,1.80
2022-08-09T13:59:25.130Z,1.80
2022-08-09T14:03:17.053Z,2.08
2022-08-09T14:06:29.548Z,1.90
2022-08-09T14:09:53.280Z,1.70
2022-08-09T14:13:28.403Z,1.80
2022-08-09T14:16:55.295Z,1.92
2022-08-09T14:20:16.059Z,1.90
2022-08-09T14:23:40.638Z,1.80
2022-08-09T14:27:20.054Z,1.90
2022-08-09T14:30:41.943Z,1.80
2022-08-09T14:34:04.332Z,1.90
2022-08-09T14:37:06.075Z,2.00
2022-08-09T14:41:00.663Z,2.03
2022-08-09T14:44:11.285Z,1.50
2022-08-09T14:47:45.493Z,1.90
2022-08-09T14:51:09.431Z,2.05
2022-08-09T14:54:30.822Z,1.60
2022-08-09T14:57:54.229Z,1.80
2022-08-09T15:01:15.017Z,1.80
2022-08-09T15:04:35.300Z,1.90
2022-08-09T15:07:56.825Z,3.03
2022-08-09T15:11:20.304Z,2.03
2022-08-09T15:14:24.137Z,1.60
2022-08-09T15:17:30.979Z,1.85
2022-08-09T15:21:55.921Z,2.00
2022-08-09T15:24:31.659Z,1.75
2022-08-09T15:28:00.478Z,2.00
2022-08-09T15:31:21.270Z,1.90
2022-08-09T15:34:48.878Z,2.30
2022-08-09T15:38:10.985Z,1.77
2022-08-09T15:41:32.831Z,1.65
2022-08-09T15:44:58.218Z,1.80
2022-08-09T15:47:52.787Z,1.70
2022-08-09T15:51:44.129Z,1.85
2022-08-09T15:54:54.186Z,1.70
2022-08-09T15:58:26.808Z,1.70
2022-08-09T16:01:48.774Z,1.60
2022-08-09T16:04:35.192Z,1.70
2022-08-09T16:07:57.055Z,1.75
2022-08-09T16:11:17.540Z,1.70
2022-08-09T16:14:37.649Z,1.77
2022-08-09T16:18:01.326Z,1.50
2022-08-09T16:21:25.559Z,1.87
2022-08-09T16:24:46.426Z,1.90
2022-08-09T16:28:17.205Z,1.70
2022-08-09T16:31:38.063Z,1.63
2022-08-09T16:35:19.427Z,1.70
2022-08-09T16:38:58.633Z,1.60
2022-08-09T16:42:23.769Z,1.80
2022-08-09T16:45:30.252Z,1.70
2022-08-09T16:48:59.500Z,1.80
2022-08-09T16:52:23.762Z,1.80
2022-08-09T16:55:58.698Z,1.87
2022-08-09T16:59:21.508Z,2.03
2022-08-09T17:02:42.704Z,1.70
2022-08-09T17:06:31.645Z,1.63
2022-08-09T17:09:49.341Z,1.70
2022-08-09T17:13:10.713Z,1.70
2022-08-09T17:16:30.526Z,1.97
2022-08-09T17:20:29.932Z,1.97
2022-08-09T17:24:27.529Z,1.77
2022-08-09T17:27:20.384Z,2.10
2022-08-09T17:30:40.527Z,1.80
2022-08-09T17:35:00.890Z,2.00
2022-08-09T17:38:02.199Z,1.83
2022-08-09T17:41:10.044Z,1.70
2022-08-09T17:44:38.659Z,1.60
2022-08-09T17:47:00.005Z,1.63
2022-08-09T17:50:36.126Z,1.80
2022-08-09T17:53:57.679Z,1.93
2022-08-09T17:57:34.722Z,1.90
2022-08-09T18:00:12.781Z,1.87
2022-08-09T18:03:33.025Z,1.80
2022-08-09T18:06:31.779Z,1.97
2022-08-09T18:10:04.535Z,2.07
2022-08-09T18:13:38.746Z,1.80
2022-08-09T18:17:02.604Z,2.00
2022-08-09T18:20:58.801Z,2.00
2022-08-09T18:24:11.980Z,1.90
2022-08-09T18:27:14.123Z,2.03
2022-08-09T18:30:53.884Z,1.90
2022-08-09T18:34:15.111Z,2.00
2022-08-09T18:37:48.466Z,2.20
2022-08-09T18:41:16.424Z,2.13
2022-08-09T18:43:53.254Z,2.00
2022-08-09T18:47:16.673Z,2.00
2022-08-09T18:50:41.483Z,2.10
2022-08-09T18:54:08.545Z,2.00
2022-08-09T18:57:42.964Z,2.50
2022-08-09T19:01:05.337Z,2.03
2022-08-09T19:04:35.185Z,2.20
2022-08-09T19:08:04.298Z,2.00
2022-08-09T19:11:35.365Z,2.23
2022-08-09T19:14:58.616Z,1.83
2022-08-09T19:18:35.151Z,1.87
2022-08-09T19:22:04.969Z,2.20
2022-08-09T19:26:01.303Z,1.97
2022-08-09T19:29:18.227Z,4.20
2022-08-09T19:32:40.771Z,2.07
2022-08-09T19:36:01.483Z,2.30
2022-08-09T19:39:43.798Z,2.47
2022-08-09T19:43:05.226Z,2.13
2022-08-09T19:45:44.896Z,2.10
2022-08-09T19:48:45.469Z,2.00
2022-08-09T19:51:07.490Z,2.10
2022-08-09T19:53:37.257Z,9.27
2022-08-09T19:56:09.533Z,13.10
2022-08-09T19:58:40.448Z,2.37
2022-08-09T20:01:17.995Z,2.30
2022-08-09T20:04:25.218Z,2.40
2022-08-09T20:06:29.865Z,2.30
2022-08-09T20:08:55.279Z,2.30
2022-08-09T20:11:18.370Z,2.53
2022-08-09T20:13:40.300Z,2.30
2022-08-09T20:16:35.316Z,2.60
2022-08-09T20:19:54.649Z,2.50
2022-08-09T20:22:16.474Z,2.50
2022-08-09T20:24:41.228Z,2.70
2022-08-09T20:27:05.714Z,2.77
2022-08-09T20:30:10.575Z,2.40
2022-08-09T20:32:33.583Z,2.40
2022-08-09T20:34:55.927Z,2.50
2022-08-09T20:37:21.558Z,2.50
2022-08-09T20:40:15.378Z,1.93
2022-08-09T20:42:27.020Z,2.27
2022-08-09T20:44:50.665Z,2.47
2022-08-09T20:47:45.590Z,2.30
2022-08-09T20:50:04.194Z,2.30
2022-08-09T20:52:27.326Z,2.30
2022-08-09T20:54:52.811Z,2.50
2022-08-09T20:57:14.693Z,2.30
2022-08-09T21:00:19.453Z,2.00
2022-08-09T21:02:21.011Z,2.13
2022-08-09T21:05:56.614Z,2.10
2022-08-09T21:09:24.975Z,2.30
2022-08-09T21:16:30.253Z,2.47
2022-08-09T21:20:19.479Z,2.17
2022-08-09T21:23:47.842Z,1.83
2022-08-09T21:27:51.614Z,2.43
2022-08-09T21:30:51.917Z,2.50
2022-08-09T21:34:12.562Z,2.00
2022-08-09T21:37:35.510Z,2.10
2022-08-09T21:40:21.973Z,2.33
2022-08-09T21:42:57.143Z,2.30
2022-08-09T21:46:18.250Z,2.30
2022-08-09T21:49:39.911Z,2.10
2022-08-09T21:53:03.747Z,2.27
2022-08-09T21:55:57.093Z,2.30
2022-08-09T21:59:18.133Z,2.30
2022-08-09T22:02:08.634Z,2.30
2022-08-09T22:04:58.626Z,2.30
2022-08-09T22:07:39.971Z,2.30
2022-08-09T22:10:03.428Z,2.40
2022-08-09T22:12:30.487Z,2.40
2022-08-09T22:14:54.466Z,2.43
2022-08-09T22:17:16.624Z,2.30
2022-08-09T22:19:57.991Z,2.40
2022-08-09T22:22:21.114Z,2.53
2022-08-09T22:25:10.576Z,2.50
2022-08-09T22:27:24.289Z,2.47
2022-08-09T22:29:48.482Z,2.23
2022-08-09T22:33:12.176Z,2.53
2022-08-09T22:36:00.792Z,2.23
2022-08-09T22:38:20.573Z,2.43
2022-08-09T22:40:48.681Z,2.70
2022-08-09T22:44:09.873Z,2.43
2022-08-09T22:48:16.601Z,2.20
2022-08-09T22:49:46.825Z,2.47
2022-08-09T22:52:12.149Z,2.60
2022-08-09T22:54:37.398Z,2.37
2022-08-09T22:56:59.001Z,2.40
2022-08-09T22:59:57.333Z,2.37
2022-08-09T23:02:01.725Z,2.50
2022-08-09T23:04:25.520Z,2.40
2022-08-09T23:07:10.959Z,2.60
2022-08-09T23:09:33.934Z,2.43
2022-08-09T23:11:57.400Z,2.70
2022-08-09T23:14:37.214Z,2.50
2022-08-09T23:16:58.998Z,2.43
2022-08-09T23:19:20.374Z,2.40
2022-08-09T23:22:30.002Z,2.70
2022-08-09T23:24:53.100Z,2.60
2022-08-09T23:27:14.646Z,2.50
2022-08-09T23:29:36.301Z,2.50
2022-08-09T23:31:57.921Z,2.67
2022-08-09T23:34:19.359Z,2.60
2022-08-09T23:36:40.663Z,2.50
2022-08-09T23:39:02.067Z,2.80
2022-08-09T23:41:28.464Z,2.40
2022-08-09T23:43:50.720Z,2.50
2022-08-09T23:46:16.736Z,2.50
2022-08-09T23:48:59.366Z,2.40
2022-08-09T23:51:37.166Z,2.40
2022-08-09T23:54:02.047Z,2.57
2022-08-09T23:56:52.601Z,2.50
2022-08-09T23:59:16.048Z,2.40
